»·PEaware :: ASA965 KLAS-KSLC

ASA965 :: KLAS-KSLC

FLIGHT INFORMATION

Flight Status: Arrived
Operator:
Alaska Airlines
More flights by this operator :: More flights under this callsign
Pilot: Andrew C. (28419)
Aircraft: BOEING 737-800
(B738)
More flights by this aircraft type
Origin: KLAS McCarran Intl
United States
Destination: KSLC Salt Lake City Intl
United States
More flights between these airports :: More routes between these airports
Route: +TRALR9 MLF DELTA5
File this flight plan on PilotEdge
Remarks: RMK / SIMBRIEF
Altitude:
(Current/Filed)
37,000ft
Speed:
(Current/Filed)
454kts
Departed: 16-Sep-20 04:30 PM
Arrived: 16-Sep-20 05:32 PM
Distance/Time
Traveled:
319nm/1:02
Distance/Time
To Go:
Arrived

Flight Plot

Page will automatically refresh every two minutes.

Flight plan parsing failed; only flown route is shown


Map Options




Map Legend


Flown Route
Filed Route
Departure Airport
Arrival Airport
Navaid (VOR, NDB)
Fix

Horizontal Profiles

Position Reports

Time Latitude Longitude Heading Altitude Ground
Speed
16-Sep-20 16:13 36.080899 -115.138533 315 2076ft 0kts
16-Sep-20 16:14 36.080899 -115.138533 315 2076ft 0kts
16-Sep-20 16:15 36.080899 -115.138533 315 2076ft 0kts
16-Sep-20 16:16 36.080899 -115.138533 315 2076ft 0kts
16-Sep-20 16:17 36.080899 -115.138533 315 2076ft 0kts
16-Sep-20 16:18 36.080899 -115.138533 315 2076ft 0kts
16-Sep-20 16:19 36.080547 -115.138130 317 2076ft 2kts
16-Sep-20 16:20 36.080168 -115.137697 292 2076ft 1kts
16-Sep-20 16:21 36.080173 -115.137563 260 2076ft 0kts
16-Sep-20 16:22 36.080058 -115.138049 248 2076ft 9kts
16-Sep-20 16:23 36.077718 -115.142027 248 2091ft 24kts
16-Sep-20 16:24 36.077857 -115.148390 274 2111ft 15kts
16-Sep-20 16:25 36.078031 -115.155893 270 2137ft 25kts
16-Sep-20 16:26 36.077530 -115.161268 183 2156ft 4kts
16-Sep-20 16:27 36.077496 -115.161269 181 2156ft 0kts
16-Sep-20 16:28 36.076387 -115.160379 89 2156ft 32kts
16-Sep-20 16:29 36.076795 -115.112880 88 3040ft 187kts
16-Sep-20 16:30 36.076487 -115.034837 92 4289ft 271kts
16-Sep-20 16:31 36.078554 -114.937230 80 7027ft 294kts
16-Sep-20 16:32 36.095621 -114.836835 77 10071ft 303kts
16-Sep-20 16:33 36.114699 -114.724766 78 11858ft 351kts
16-Sep-20 16:34 36.134755 -114.604317 78 14540ft 364kts
16-Sep-20 16:35 36.155698 -114.479043 77 17091ft 379kts
16-Sep-20 16:36 36.177047 -114.349044 78 19396ft 393kts
16-Sep-20 16:37 36.205937 -114.218771 67 21480ft 406kts
16-Sep-20 16:38 36.254108 -114.090258 62 23507ft 418kts
16-Sep-20 16:39 36.305072 -113.958826 62 25349ft 431kts
16-Sep-20 16:40 36.357840 -113.822485 61 26968ft 445kts
16-Sep-20 16:41 36.413943 -113.684149 50 28477ft 453kts
16-Sep-20 16:42 36.513088 -113.595551 11 29957ft 440kts
16-Sep-20 16:43 36.631717 -113.558863 7 31606ft 439kts
16-Sep-20 16:44 36.750431 -113.523101 7 33412ft 433kts
16-Sep-20 16:46 36.867148 -113.487870 6 35025ft 428kts
16-Sep-20 16:47 36.982398 -113.452990 6 36443ft 425kts
16-Sep-20 16:48 37.098012 -113.417938 6 37078ft 428kts
16-Sep-20 16:49 37.212418 -113.383046 5 37157ft 420kts
16-Sep-20 16:50 37.326333 -113.348292 6 37243ft 424kts
16-Sep-20 16:51 37.440603 -113.312557 7 37247ft 424kts
16-Sep-20 16:52 37.554538 -113.275669 6 37247ft 423kts
16-Sep-20 16:53 37.669655 -113.238463 7 37006ft 422kts
16-Sep-20 16:54 37.783565 -113.201726 6 36999ft 423kts
16-Sep-20 16:55 37.897729 -113.164749 6 36999ft 422kts
16-Sep-20 16:56 38.012239 -113.127550 6 36999ft 422kts
16-Sep-20 16:57 38.125409 -113.090668 6 37000ft 423kts
16-Sep-20 16:58 38.239806 -113.053244 6 37000ft 421kts
16-Sep-20 16:59 38.353904 -113.013767 12 37000ft 427kts
16-Sep-20 17:00 38.464848 -112.957179 14 36999ft 429kts
16-Sep-20 17:01 38.575341 -112.898665 14 37000ft 429kts
16-Sep-20 17:02 38.685744 -112.839721 14 37000ft 429kts
16-Sep-20 17:02 38.777568 -112.790497 14 37000ft 429kts
16-Sep-20 17:03 38.888294 -112.730793 14 37000ft 427kts
16-Sep-20 17:05 39.015840 -112.661668 14 36999ft 428kts
16-Sep-20 17:05 39.107642 -112.611909 15 36502ft 437kts
16-Sep-20 17:06 39.221372 -112.550102 17 32293ft 443kts
16-Sep-20 17:07 39.330512 -112.497582 10 30286ft 408kts
16-Sep-20 17:09 39.459832 -112.453705 10 29081ft 408kts
16-Sep-20 17:09 39.549718 -112.423671 10 28166ft 388kts
16-Sep-20 17:10 39.653227 -112.389188 11 26446ft 391kts
16-Sep-20 17:11 39.760159 -112.353492 12 24502ft 392kts
16-Sep-20 17:12 39.865622 -112.318145 13 24238ft 394kts
16-Sep-20 17:13 39.970977 -112.282744 13 22286ft 401kts
16-Sep-20 17:14 40.078637 -112.246363 14 18508ft 393kts
16-Sep-20 17:15 40.178395 -112.212315 14 17046ft 353kts
16-Sep-20 17:16 40.274952 -112.179510 13 15286ft 370kts
16-Sep-20 17:17 40.371606 -112.146515 13 14009ft 334kts
16-Sep-20 17:18 40.461096 -112.115972 13 13378ft 327kts
16-Sep-20 17:19 40.549783 -112.086080 9 12158ft 325kts
16-Sep-20 17:20 40.638182 -112.078859 355 11060ft 312kts
16-Sep-20 17:21 40.725337 -112.088927 353 11010ft 317kts
16-Sep-20 17:22 40.813753 -112.099317 353 10998ft 308kts
16-Sep-20 17:23 40.894697 -112.108622 353 10106ft 280kts
16-Sep-20 17:24 40.968237 -112.116729 355 8821ft 258kts
16-Sep-20 17:25 41.013357 -112.060675 89 7638ft 233kts
16-Sep-20 17:26 40.981340 -111.999959 156 7571ft 212kts
16-Sep-20 17:27 40.922504 -111.990073 178 6632ft 219kts
16-Sep-20 17:28 40.864736 -111.983790 175 5370ft 179kts
16-Sep-20 17:29 40.819654 -111.978353 175 4517ft 157kts
16-Sep-20 17:30 40.783409 -111.974175 174 4237ft 62kts
16-Sep-20 17:31 40.780487 -111.975742 298 4237ft 0kts
16-Sep-20 17:32 40.783150 -111.976320 353 4237ft 21kts
16-Sep-20 17:33 40.785388 -111.977474 252 4237ft 1kts
16-Sep-20 17:34 40.785371 -111.977544 252 4237ft 0kts

Navigation Log

Ident Type
Flight plan parsing failed, navigation log unavailable